Terminal Aerodrome Forecast
Issued by NWS

Home | Current Version | Previous Version | Text Only | Print | Product List | Glossary Off
Versions: 1 2 3 4 5 6 7 8 9 10 11 12 13 14 15 16 17

100
FTUS43 KICT 291140
TAFSLN
TAF
KSLN 291140Z 2912/3012 VRB04KT P6SM VCSH BKN080
     FM291500 11007KT P6SM SCT100
     FM291700 10007KT P6SM BKN035
     FM292100 15009KT P6SM SCT040=

USA.gov is the U.S. government's official web portal to all federal, state and local government web resources and services.